sensor_id;sensor_type;location;lat;lon;timestamp;P1;durP1;ratioP1;P2;durP2;ratioP2
71148;SDS011;59072;42.144;25.200;2023-10-31T00:02:03;16.00;;;8.45;;
71148;SDS011;59072;42.144;25.200;2023-10-31T00:04:28;16.73;;;9.25;;
71148;SDS011;59072;42.144;25.200;2023-10-31T00:06:54;17.15;;;9.93;;
71148;SDS011;59072;42.144;25.200;2023-10-31T00:09:19;18.17;;;10.10;;
71148;SDS011;59072;42.144;25.200;2023-10-31T00:11:44;16.40;;;10.43;;
71148;SDS011;59072;42.144;25.200;2023-10-31T00:14:10;17.77;;;10.48;;
71148;SDS011;59072;42.144;25.200;2023-10-31T00:16:35;18.38;;;10.45;;
71148;SDS011;59072;42.144;25.200;2023-10-31T00:19:01;15.25;;;10.32;;
71148;SDS011;59072;42.144;25.200;2023-10-31T00:21:26;19.42;;;10.55;;
71148;SDS011;59072;42.144;25.200;2023-10-31T00:23:52;14.80;;;9.27;;
71148;SDS011;59072;42.144;25.200;2023-10-31T00:26:17;16.58;;;9.00;;
71148;SDS011;59072;42.144;25.200;2023-10-31T00:28:43;15.07;;;9.25;;
71148;SDS011;59072;42.144;25.200;2023-10-31T00:31:08;18.63;;;8.32;;
71148;SDS011;59072;42.144;25.200;2023-10-31T00:33:36;18.17;;;9.57;;
71148;SDS011;59072;42.144;25.200;2023-10-31T00:36:02;15.63;;;10.00;;
71148;SDS011;59072;42.144;25.200;2023-10-31T00:38:27;16.08;;;9.07;;
71148;SDS011;59072;42.144;25.200;2023-10-31T00:40:53;16.00;;;8.70;;
71148;SDS011;59072;42.144;25.200;2023-10-31T00:43:18;17.33;;;9.90;;
71148;SDS011;59072;42.144;25.200;2023-10-31T00:45:44;15.30;;;8.20;;
71148;SDS011;59072;42.144;25.200;2023-10-31T00:48:09;16.85;;;9.00;;
71148;SDS011;59072;42.144;25.200;2023-10-31T00:50:34;19.25;;;9.38;;
71148;SDS011;59072;42.144;25.200;2023-10-31T00:53:00;13.98;;;9.02;;
71148;SDS011;59072;42.144;25.200;2023-10-31T00:55:25;15.27;;;9.05;;
71148;SDS011;59072;42.144;25.200;2023-10-31T00:57:51;16.15;;;10.52;;
71148;SDS011;59072;42.144;25.200;2023-10-31T01:00:16;12.30;;;9.07;;
71148;SDS011;59072;42.144;25.200;2023-10-31T01:02:42;15.60;;;8.68;;
71148;SDS011;59072;42.144;25.200;2023-10-31T01:05:07;16.27;;;9.38;;
71148;SDS011;59072;42.144;25.200;2023-10-31T01:07:33;18.05;;;9.70;;
71148;SDS011;59072;42.144;25.200;2023-10-31T01:09:59;16.30;;;9.00;;
71148;SDS011;59072;42.144;25.200;2023-10-31T01:12:24;18.02;;;9.43;;
71148;SDS011;59072;42.144;25.200;2023-10-31T01:14:53;13.77;;;9.80;;
71148;SDS011;59072;42.144;25.200;2023-10-31T01:17:19;17.33;;;10.55;;
71148;SDS011;59072;42.144;25.200;2023-10-31T01:19:45;16.33;;;9.55;;
71148;SDS011;59072;42.144;25.200;2023-10-31T01:22:10;16.35;;;9.38;;
71148;SDS011;59072;42.144;25.200;2023-10-31T01:24:36;16.23;;;8.82;;
71148;SDS011;59072;42.144;25.200;2023-10-31T01:27:02;15.75;;;9.65;;
71148;SDS011;59072;42.144;25.200;2023-10-31T01:29:27;18.42;;;10.07;;
71148;SDS011;59072;42.144;25.200;2023-10-31T01:31:53;16.23;;;9.05;;
71148;SDS011;59072;42.144;25.200;2023-10-31T01:34:18;13.90;;;8.75;;
71148;SDS011;59072;42.144;25.200;2023-10-31T01:36:43;18.58;;;9.68;;
71148;SDS011;59072;42.144;25.200;2023-10-31T01:39:09;16.23;;;8.65;;
71148;SDS011;59072;42.144;25.200;2023-10-31T01:41:35;15.30;;;9.07;;
71148;SDS011;59072;42.144;25.200;2023-10-31T01:44:01;15.50;;;8.43;;
71148;SDS011;59072;42.144;25.200;2023-10-31T01:46:26;12.85;;;7.82;;
71148;SDS011;59072;42.144;25.200;2023-10-31T01:48:52;14.15;;;8.98;;
71148;SDS011;59072;42.144;25.200;2023-10-31T01:51:18;14.50;;;9.48;;
71148;SDS011;59072;42.144;25.200;2023-10-31T01:53:44;15.82;;;9.38;;
71148;SDS011;59072;42.144;25.200;2023-10-31T01:56:09;18.60;;;9.68;;
71148;SDS011;59072;42.144;25.200;2023-10-31T01:58:35;15.93;;;9.13;;
71148;SDS011;59072;42.144;25.200;2023-10-31T02:01:01;14.50;;;9.13;;
71148;SDS011;59072;42.144;25.200;2023-10-31T02:03:28;14.57;;;9.18;;
71148;SDS011;59072;42.144;25.200;2023-10-31T02:05:55;16.45;;;9.40;;
71148;SDS011;59072;42.144;25.200;2023-10-31T02:08:21;12.65;;;9.18;;
71148;SDS011;59072;42.144;25.200;2023-10-31T02:10:47;19.65;;;10.10;;
71148;SDS011;59072;42.144;25.200;2023-10-31T02:13:16;17.33;;;9.45;;
71148;SDS011;59072;42.144;25.200;2023-10-31T02:15:43;13.88;;;9.32;;
71148;SDS011;59072;42.144;25.200;2023-10-31T02:18:09;13.63;;;8.95;;
71148;SDS011;59072;42.144;25.200;2023-10-31T02:20:34;14.43;;;8.75;;
71148;SDS011;59072;42.144;25.200;2023-10-31T02:23:01;14.05;;;9.00;;
71148;SDS011;59072;42.144;25.200;2023-10-31T02:25:27;14.75;;;8.90;;
71148;SDS011;59072;42.144;25.200;2023-10-31T02:27:53;13.75;;;9.45;;
71148;SDS011;59072;42.144;25.200;2023-10-31T02:30:18;13.90;;;10.20;;
71148;SDS011;59072;42.144;25.200;2023-10-31T02:32:44;11.20;;;8.68;;
71148;SDS011;59072;42.144;25.200;2023-10-31T02:35:09;12.85;;;8.93;;
71148;SDS011;59072;42.144;25.200;2023-10-31T02:37:35;14.95;;;9.77;;
71148;SDS011;59072;42.144;25.200;2023-10-31T02:40:00;15.52;;;9.65;;
71148;SDS011;59072;42.144;25.200;2023-10-31T02:42:26;13.90;;;8.70;;
71148;SDS011;59072;42.144;25.200;2023-10-31T02:44:52;15.20;;;9.13;;
71148;SDS011;59072;42.144;25.200;2023-10-31T02:47:18;15.02;;;9.23;;
71148;SDS011;59072;42.144;25.200;2023-10-31T02:49:43;13.82;;;9.25;;
71148;SDS011;59072;42.144;25.200;2023-10-31T02:52:09;15.73;;;9.75;;
71148;SDS011;59072;42.144;25.200;2023-10-31T02:54:34;16.08;;;9.45;;
71148;SDS011;59072;42.144;25.200;2023-10-31T02:57:00;15.00;;;10.35;;
71148;SDS011;59072;42.144;25.200;2023-10-31T02:59:25;14.35;;;9.43;;
71148;SDS011;59072;42.144;25.200;2023-10-31T03:01:52;13.07;;;9.50;;
71148;SDS011;59072;42.144;25.200;2023-10-31T03:04:17;23.20;;;11.23;;
71148;SDS011;59072;42.144;25.200;2023-10-31T03:06:43;13.85;;;9.55;;
71148;SDS011;59072;42.144;25.200;2023-10-31T03:09:08;13.52;;;9.20;;
71148;SDS011;59072;42.144;25.200;2023-10-31T03:11:34;12.65;;;8.77;;
71148;SDS011;59072;42.144;25.200;2023-10-31T03:13:59;16.63;;;9.90;;
71148;SDS011;59072;42.144;25.200;2023-10-31T03:16:25;15.65;;;9.85;;
71148;SDS011;59072;42.144;25.200;2023-10-31T03:18:50;16.48;;;9.00;;
71148;SDS011;59072;42.144;25.200;2023-10-31T03:21:16;14.95;;;9.57;;
71148;SDS011;59072;42.144;25.200;2023-10-31T03:23:42;15.57;;;9.30;;
71148;SDS011;59072;42.144;25.200;2023-10-31T03:26:15;16.15;;;10.35;;
71148;SDS011;59072;42.144;25.200;2023-10-31T03:28:42;14.88;;;9.30;;
71148;SDS011;59072;42.144;25.200;2023-10-31T03:31:08;14.82;;;8.75;;
71148;SDS011;59072;42.144;25.200;2023-10-31T03:33:34;15.15;;;9.60;;
71148;SDS011;59072;42.144;25.200;2023-10-31T03:35:59;16.15;;;9.07;;
71148;SDS011;59072;42.144;25.200;2023-10-31T03:38:25;14.02;;;8.98;;
71148;SDS011;59072;42.144;25.200;2023-10-31T03:40:50;13.70;;;9.35;;
71148;SDS011;59072;42.144;25.200;2023-10-31T03:43:16;15.35;;;9.88;;
71148;SDS011;59072;42.144;25.200;2023-10-31T03:45:41;16.58;;;9.73;;
71148;SDS011;59072;42.144;25.200;2023-10-31T03:48:06;21.23;;;10.15;;
71148;SDS011;59072;42.144;25.200;2023-10-31T03:50:32;14.52;;;10.20;;
71148;SDS011;59072;42.144;25.200;2023-10-31T03:52:57;15.65;;;10.32;;
71148;SDS011;59072;42.144;25.200;2023-10-31T03:55:23;16.67;;;9.82;;
71148;SDS011;59072;42.144;25.200;2023-10-31T03:57:48;16.67;;;9.80;;
71148;SDS011;59072;42.144;25.200;2023-10-31T04:00:14;19.05;;;11.50;;
71148;SDS011;59072;42.144;25.200;2023-10-31T04:02:40;18.83;;;11.02;;
71148;SDS011;59072;42.144;25.200;2023-10-31T04:05:06;17.17;;;11.57;;
71148;SDS011;59072;42.144;25.200;2023-10-31T04:07:32;15.48;;;9.75;;
71148;SDS011;59072;42.144;25.200;2023-10-31T04:09:57;15.43;;;10.10;;
71148;SDS011;59072;42.144;25.200;2023-10-31T04:12:23;15.68;;;10.65;;
71148;SDS011;59072;42.144;25.200;2023-10-31T04:14:48;17.70;;;10.30;;
71148;SDS011;59072;42.144;25.200;2023-10-31T04:17:13;15.05;;;10.23;;
71148;SDS011;59072;42.144;25.200;2023-10-31T04:19:39;14.65;;;9.93;;
71148;SDS011;59072;42.144;25.200;2023-10-31T04:22:05;15.20;;;10.27;;
71148;SDS011;59072;42.144;25.200;2023-10-31T04:24:30;13.63;;;9.88;;
71148;SDS011;59072;42.144;25.200;2023-10-31T04:26:56;16.20;;;10.15;;
71148;SDS011;59072;42.144;25.200;2023-10-31T04:29:22;16.52;;;10.48;;
71148;SDS011;59072;42.144;25.200;2023-10-31T04:31:47;14.95;;;10.10;;
71148;SDS011;59072;42.144;25.200;2023-10-31T04:34:13;22.45;;;11.57;;
71148;SDS011;59072;42.144;25.200;2023-10-31T04:36:38;15.65;;;9.93;;
71148;SDS011;59072;42.144;25.200;2023-10-31T04:39:05;18.48;;;11.45;;
71148;SDS011;59072;42.144;25.200;2023-10-31T04:41:30;17.45;;;10.30;;
71148;SDS011;59072;42.144;25.200;2023-10-31T04:43:56;18.45;;;11.02;;
71148;SDS011;59072;42.144;25.200;2023-10-31T04:46:21;16.75;;;9.35;;
71148;SDS011;59072;42.144;25.200;2023-10-31T04:48:47;17.80;;;9.77;;
71148;SDS011;59072;42.144;25.200;2023-10-31T04:51:12;17.23;;;9.57;;
71148;SDS011;59072;42.144;25.200;2023-10-31T04:53:37;18.15;;;9.23;;
71148;SDS011;59072;42.144;25.200;2023-10-31T04:56:03;19.90;;;10.77;;
71148;SDS011;59072;42.144;25.200;2023-10-31T04:58:29;20.42;;;10.50;;
71148;SDS011;59072;42.144;25.200;2023-10-31T05:00:54;22.30;;;10.98;;
71148;SDS011;59072;42.144;25.200;2023-10-31T05:03:20;23.05;;;10.15;;
71148;SDS011;59072;42.144;25.200;2023-10-31T05:05:45;15.30;;;10.23;;
71148;SDS011;59072;42.144;25.200;2023-10-31T05:08:11;21.42;;;10.13;;
71148;SDS011;59072;42.144;25.200;2023-10-31T05:10:37;16.38;;;8.43;;
71148;SDS011;59072;42.144;25.200;2023-10-31T05:13:02;17.88;;;9.30;;
71148;SDS011;59072;42.144;25.200;2023-10-31T05:15:28;19.17;;;10.13;;
71148;SDS011;59072;42.144;25.200;2023-10-31T05:17:54;19.63;;;10.18;;
71148;SDS011;59072;42.144;25.200;2023-10-31T05:20:19;30.70;;;12.52;;
71148;SDS011;59072;42.144;25.200;2023-10-31T05:22:45;25.65;;;11.10;;
71148;SDS011;59072;42.144;25.200;2023-10-31T05:25:11;24.77;;;9.32;;
71148;SDS011;59072;42.144;25.200;2023-10-31T05:27:36;21.98;;;9.98;;
71148;SDS011;59072;42.144;25.200;2023-10-31T05:30:02;19.88;;;9.68;;
71148;SDS011;59072;42.144;25.200;2023-10-31T05:32:27;17.27;;;9.45;;
71148;SDS011;59072;42.144;25.200;2023-10-31T05:34:53;26.63;;;10.32;;
71148;SDS011;59072;42.144;25.200;2023-10-31T05:37:18;20.50;;;10.10;;
71148;SDS011;59072;42.144;25.200;2023-10-31T05:39:44;26.10;;;10.52;;
71148;SDS011;59072;42.144;25.200;2023-10-31T05:42:09;48.60;;;12.65;;
71148;SDS011;59072;42.144;25.200;2023-10-31T05:44:34;36.95;;;18.00;;
71148;SDS011;59072;42.144;25.200;2023-10-31T05:47:00;38.65;;;20.95;;
71148;SDS011;59072;42.144;25.200;2023-10-31T05:49:25;30.85;;;15.02;;
71148;SDS011;59072;42.144;25.200;2023-10-31T05:51:51;23.88;;;13.80;;
71148;SDS011;59072;42.144;25.200;2023-10-31T05:54:17;23.48;;;12.90;;
71148;SDS011;59072;42.144;25.200;2023-10-31T05:56:42;23.80;;;13.05;;
71148;SDS011;59072;42.144;25.200;2023-10-31T05:59:09;45.67;;;14.27;;
71148;SDS011;59072;42.144;25.200;2023-10-31T06:01:35;28.88;;;11.60;;
71148;SDS011;59072;42.144;25.200;2023-10-31T06:04:00;31.73;;;11.90;;
71148;SDS011;59072;42.144;25.200;2023-10-31T06:06:26;21.15;;;10.73;;
71148;SDS011;59072;42.144;25.200;2023-10-31T06:08:51;22.88;;;11.93;;
71148;SDS011;59072;42.144;25.200;2023-10-31T06:11:17;25.35;;;12.18;;
71148;SDS011;59072;42.144;25.200;2023-10-31T06:13:42;34.58;;;16.08;;
71148;SDS011;59072;42.144;25.200;2023-10-31T06:16:07;24.63;;;13.57;;
71148;SDS011;59072;42.144;25.200;2023-10-31T06:18:33;27.77;;;15.20;;
71148;SDS011;59072;42.144;25.200;2023-10-31T06:20:59;21.67;;;14.63;;
71148;SDS011;59072;42.144;25.200;2023-10-31T06:23:25;28.45;;;18.42;;
71148;SDS011;59072;42.144;25.200;2023-10-31T06:25:50;31.23;;;20.58;;
71148;SDS011;59072;42.144;25.200;2023-10-31T06:28:15;31.77;;;20.92;;
71148;SDS011;59072;42.144;25.200;2023-10-31T06:30:41;32.97;;;21.73;;
71148;SDS011;59072;42.144;25.200;2023-10-31T06:33:07;39.83;;;22.73;;
71148;SDS011;59072;42.144;25.200;2023-10-31T06:35:33;26.98;;;19.88;;
71148;SDS011;59072;42.144;25.200;2023-10-31T06:37:59;27.05;;;19.52;;
71148;SDS011;59072;42.144;25.200;2023-10-31T06:40:26;27.80;;;19.02;;
71148;SDS011;59072;42.144;25.200;2023-10-31T06:42:51;29.48;;;19.00;;
71148;SDS011;59072;42.144;25.200;2023-10-31T06:45:17;28.38;;;20.08;;
71148;SDS011;59072;42.144;25.200;2023-10-31T06:47:43;28.95;;;19.67;;
71148;SDS011;59072;42.144;25.200;2023-10-31T06:50:08;28.63;;;19.40;;
71148;SDS011;59072;42.144;25.200;2023-10-31T06:52:34;28.98;;;19.17;;
71148;SDS011;59072;42.144;25.200;2023-10-31T06:55:00;36.42;;;20.02;;
71148;SDS011;59072;42.144;25.200;2023-10-31T06:57:25;29.98;;;18.95;;
71148;SDS011;59072;42.144;25.200;2023-10-31T06:59:51;27.92;;;17.30;;
71148;SDS011;59072;42.144;25.200;2023-10-31T07:02:17;29.75;;;16.83;;
71148;SDS011;59072;42.144;25.200;2023-10-31T07:04:42;28.73;;;15.63;;
71148;SDS011;59072;42.144;25.200;2023-10-31T07:07:08;20.27;;;15.23;;
71148;SDS011;59072;42.144;25.200;2023-10-31T07:09:33;26.20;;;14.98;;
71148;SDS011;59072;42.144;25.200;2023-10-31T07:11:59;21.75;;;14.50;;
71148;SDS011;59072;42.144;25.200;2023-10-31T07:14:24;25.23;;;14.77;;
71148;SDS011;59072;42.144;25.200;2023-10-31T07:16:49;19.38;;;14.00;;
71148;SDS011;59072;42.144;25.200;2023-10-31T07:19:15;20.50;;;14.18;;
71148;SDS011;59072;42.144;25.200;2023-10-31T07:21:40;24.65;;;14.68;;
71148;SDS011;59072;42.144;25.200;2023-10-31T07:24:06;22.85;;;14.63;;
71148;SDS011;59072;42.144;25.200;2023-10-31T07:26:34;21.92;;;14.02;;
71148;SDS011;59072;42.144;25.200;2023-10-31T07:29:00;21.27;;;13.90;;
71148;SDS011;59072;42.144;25.200;2023-10-31T07:31:25;18.98;;;13.82;;
71148;SDS011;59072;42.144;25.200;2023-10-31T07:33:51;22.10;;;14.25;;
71148;SDS011;59072;42.144;25.200;2023-10-31T07:36:16;21.67;;;13.90;;
71148;SDS011;59072;42.144;25.200;2023-10-31T07:38:41;25.42;;;14.18;;
71148;SDS011;59072;42.144;25.200;2023-10-31T07:41:07;21.67;;;13.80;;
71148;SDS011;59072;42.144;25.200;2023-10-31T07:43:32;20.38;;;13.40;;
71148;SDS011;59072;42.144;25.200;2023-10-31T07:45:58;18.05;;;13.45;;
71148;SDS011;59072;42.144;25.200;2023-10-31T07:48:23;25.90;;;13.07;;
71148;SDS011;59072;42.144;25.200;2023-10-31T07:50:48;18.58;;;12.27;;
71148;SDS011;59072;42.144;25.200;2023-10-31T07:53:14;19.38;;;11.77;;
71148;SDS011;59072;42.144;25.200;2023-10-31T07:55:39;19.40;;;12.00;;
71148;SDS011;59072;42.144;25.200;2023-10-31T07:58:05;23.05;;;12.43;;
71148;SDS011;59072;42.144;25.200;2023-10-31T08:00:30;21.35;;;11.50;;
71148;SDS011;59072;42.144;25.200;2023-10-31T08:02:57;18.13;;;10.88;;
71148;SDS011;59072;42.144;25.200;2023-10-31T08:05:22;16.73;;;9.93;;
71148;SDS011;59072;42.144;25.200;2023-10-31T08:07:47;14.85;;;9.77;;
71148;SDS011;59072;42.144;25.200;2023-10-31T08:10:13;16.23;;;8.80;;
71148;SDS011;59072;42.144;25.200;2023-10-31T08:12:38;14.02;;;9.55;;
71148;SDS011;59072;42.144;25.200;2023-10-31T08:15:04;18.08;;;8.23;;
71148;SDS011;59072;42.144;25.200;2023-10-31T08:17:30;18.13;;;8.40;;
71148;SDS011;59072;42.144;25.200;2023-10-31T08:19:55;16.73;;;8.27;;
71148;SDS011;59072;42.144;25.200;2023-10-31T08:22:21;16.77;;;8.43;;
71148;SDS011;59072;42.144;25.200;2023-10-31T08:24:46;14.50;;;9.00;;
71148;SDS011;59072;42.144;25.200;2023-10-31T08:27:12;19.55;;;8.75;;
71148;SDS011;59072;42.144;25.200;2023-10-31T08:29:37;13.88;;;8.20;;
71148;SDS011;59072;42.144;25.200;2023-10-31T08:32:03;17.08;;;8.70;;
71148;SDS011;59072;42.144;25.200;2023-10-31T08:34:29;16.15;;;9.13;;
71148;SDS011;59072;42.144;25.200;2023-10-31T08:36:55;15.77;;;8.50;;
71148;SDS011;59072;42.144;25.200;2023-10-31T08:39:22;19.33;;;8.55;;
71148;SDS011;59072;42.144;25.200;2023-10-31T08:41:54;15.23;;;8.50;;
71148;SDS011;59072;42.144;25.200;2023-10-31T08:44:20;17.13;;;9.32;;
71148;SDS011;59072;42.144;25.200;2023-10-31T08:46:46;14.68;;;9.25;;
71148;SDS011;59072;42.144;25.200;2023-10-31T08:49:12;14.80;;;8.43;;
71148;SDS011;59072;42.144;25.200;2023-10-31T08:51:39;17.25;;;8.35;;
71148;SDS011;59072;42.144;25.200;2023-10-31T08:54:04;15.80;;;8.90;;
71148;SDS011;59072;42.144;25.200;2023-10-31T08:56:30;13.30;;;8.70;;
71148;SDS011;59072;42.144;25.200;2023-10-31T08:58:56;15.95;;;7.85;;
71148;SDS011;59072;42.144;25.200;2023-10-31T09:01:21;12.77;;;7.63;;
71148;SDS011;59072;42.144;25.200;2023-10-31T09:03:47;13.25;;;7.05;;
71148;SDS011;59072;42.144;25.200;2023-10-31T09:06:12;13.32;;;6.75;;
71148;SDS011;59072;42.144;25.200;2023-10-31T09:08:38;12.30;;;6.40;;
71148;SDS011;59072;42.144;25.200;2023-10-31T09:11:04;10.90;;;6.25;;
71148;SDS011;59072;42.144;25.200;2023-10-31T09:13:30;10.65;;;5.30;;
71148;SDS011;59072;42.144;25.200;2023-10-31T09:15:57;10.48;;;6.45;;
71148;SDS011;59072;42.144;25.200;2023-10-31T09:18:23;12.15;;;7.00;;
71148;SDS011;59072;42.144;25.200;2023-10-31T09:20:49;12.68;;;7.50;;
71148;SDS011;59072;42.144;25.200;2023-10-31T09:23:14;14.93;;;6.85;;
71148;SDS011;59072;42.144;25.200;2023-10-31T09:25:40;14.60;;;6.75;;
71148;SDS011;59072;42.144;25.200;2023-10-31T09:28:05;15.38;;;7.03;;
71148;SDS011;59072;42.144;25.200;2023-10-31T09:30:31;18.27;;;8.23;;
71148;SDS011;59072;42.144;25.200;2023-10-31T09:32:56;13.68;;;8.10;;
71148;SDS011;59072;42.144;25.200;2023-10-31T09:35:22;15.57;;;7.20;;
71148;SDS011;59072;42.144;25.200;2023-10-31T09:37:51;12.70;;;5.80;;
71148;SDS011;59072;42.144;25.200;2023-10-31T09:40:17;12.90;;;6.47;;
71148;SDS011;59072;42.144;25.200;2023-10-31T09:42:43;12.75;;;6.57;;
71148;SDS011;59072;42.144;25.200;2023-10-31T09:45:10;15.63;;;6.43;;
71148;SDS011;59072;42.144;25.200;2023-10-31T09:47:36;13.65;;;6.65;;
71148;SDS011;59072;42.144;25.200;2023-10-31T09:50:01;12.10;;;6.88;;
71148;SDS011;59072;42.144;25.200;2023-10-31T09:52:26;12.43;;;6.68;;
71148;SDS011;59072;42.144;25.200;2023-10-31T09:54:52;10.60;;;6.13;;
71148;SDS011;59072;42.144;25.200;2023-10-31T09:57:18;10.52;;;5.70;;
71148;SDS011;59072;42.144;25.200;2023-10-31T09:59:44;12.32;;;5.95;;
71148;SDS011;59072;42.144;25.200;2023-10-31T10:02:09;9.65;;;5.70;;
71148;SDS011;59072;42.144;25.200;2023-10-31T10:04:35;13.77;;;8.43;;
71148;SDS011;59072;42.144;25.200;2023-10-31T10:07:03;12.52;;;6.78;;
71148;SDS011;59072;42.144;25.200;2023-10-31T10:09:29;11.63;;;6.50;;
71148;SDS011;59072;42.144;25.200;2023-10-31T10:11:56;12.38;;;5.78;;
71148;SDS011;59072;42.144;25.200;2023-10-31T10:14:25;11.15;;;5.75;;
71148;SDS011;59072;42.144;25.200;2023-10-31T10:16:53;8.63;;;5.68;;
71148;SDS011;59072;42.144;25.200;2023-10-31T10:19:19;10.30;;;5.55;;
71148;SDS011;59072;42.144;25.200;2023-10-31T10:21:49;11.30;;;5.82;;
71148;SDS011;59072;42.144;25.200;2023-10-31T10:24:17;13.50;;;5.80;;
71148;SDS011;59072;42.144;25.200;2023-10-31T10:26:44;11.48;;;5.90;;
71148;SDS011;59072;42.144;25.200;2023-10-31T10:29:10;11.05;;;5.65;;
71148;SDS011;59072;42.144;25.200;2023-10-31T10:31:35;15.95;;;6.88;;
71148;SDS011;59072;42.144;25.200;2023-10-31T10:34:01;10.70;;;5.95;;
71148;SDS011;59072;42.144;25.200;2023-10-31T10:36:26;11.40;;;5.80;;
71148;SDS011;59072;42.144;25.200;2023-10-31T10:38:53;15.70;;;6.97;;
71148;SDS011;59072;42.144;25.200;2023-10-31T10:41:23;15.43;;;8.63;;
71148;SDS011;59072;42.144;25.200;2023-10-31T10:43:54;15.90;;;7.68;;
71148;SDS011;59072;42.144;25.200;2023-10-31T10:46:21;19.05;;;7.70;;
71148;SDS011;59072;42.144;25.200;2023-10-31T10:48:50;14.13;;;7.13;;
71148;SDS011;59072;42.144;25.200;2023-10-31T11:00:38;15.90;;;8.20;;
71148;SDS011;59072;42.144;25.200;2023-10-31T11:03:05;14.48;;;7.45;;
71148;SDS011;59072;42.144;25.200;2023-10-31T11:05:32;15.57;;;7.53;;
71148;SDS011;59072;42.144;25.200;2023-10-31T11:08:00;12.85;;;6.53;;
71148;SDS011;59072;42.144;25.200;2023-10-31T11:10:27;15.73;;;8.10;;
71148;SDS011;59072;42.144;25.200;2023-10-31T11:12:54;13.25;;;7.13;;
71148;SDS011;59072;42.144;25.200;2023-10-31T11:15:21;11.50;;;6.22;;
71148;SDS011;59072;42.144;25.200;2023-10-31T11:17:48;17.33;;;7.18;;
71148;SDS011;59072;42.144;25.200;2023-10-31T11:20:15;12.85;;;6.55;;
71148;SDS011;59072;42.144;25.200;2023-10-31T11:22:42;10.95;;;6.18;;
71148;SDS011;59072;42.144;25.200;2023-10-31T11:25:13;14.05;;;6.68;;
71148;SDS011;59072;42.144;25.200;2023-10-31T11:27:40;15.00;;;6.63;;
71148;SDS011;59072;42.144;25.200;2023-10-31T11:30:08;13.13;;;6.57;;
71148;SDS011;59072;42.144;25.200;2023-10-31T11:32:51;11.70;;;6.18;;
71148;SDS011;59072;42.144;25.200;2023-10-31T11:35:17;10.60;;;6.15;;
71148;SDS011;59072;42.144;25.200;2023-10-31T11:37:43;13.60;;;6.90;;
71148;SDS011;59072;42.144;25.200;2023-10-31T11:40:22;11.95;;;6.68;;
71148;SDS011;59072;42.144;25.200;2023-10-31T11:42:51;10.50;;;5.57;;
71148;SDS011;59072;42.144;25.200;2023-10-31T11:48:02;9.65;;;5.38;;
71148;SDS011;59072;42.144;25.200;2023-10-31T11:50:30;12.95;;;5.60;;
71148;SDS011;59072;42.144;25.200;2023-10-31T11:53:09;12.18;;;5.53;;
71148;SDS011;59072;42.144;25.200;2023-10-31T11:55:47;12.38;;;5.32;;
71148;SDS011;59072;42.144;25.200;2023-10-31T11:58:17;11.65;;;5.40;;
71148;SDS011;59072;42.144;25.200;2023-10-31T12:00:44;8.73;;;4.72;;
71148;SDS011;59072;42.144;25.200;2023-10-31T12:03:11;11.15;;;5.03;;
71148;SDS011;59072;42.144;25.200;2023-10-31T12:05:37;11.27;;;4.93;;
71148;SDS011;59072;42.144;25.200;2023-10-31T12:08:02;9.60;;;4.88;;
71148;SDS011;59072;42.144;25.200;2023-10-31T12:10:29;9.38;;;4.45;;
71148;SDS011;59072;42.144;25.200;2023-10-31T12:12:58;9.40;;;3.85;;
71148;SDS011;59072;42.144;25.200;2023-10-31T12:15:24;9.43;;;4.00;;
71148;SDS011;59072;42.144;25.200;2023-10-31T12:17:50;13.32;;;4.22;;
71148;SDS011;59072;42.144;25.200;2023-10-31T12:20:16;12.43;;;4.38;;
71148;SDS011;59072;42.144;25.200;2023-10-31T12:22:42;9.10;;;3.97;;
71148;SDS011;59072;42.144;25.200;2023-10-31T12:25:09;9.68;;;4.75;;
71148;SDS011;59072;42.144;25.200;2023-10-31T12:27:50;10.03;;;4.50;;
71148;SDS011;59072;42.144;25.200;2023-10-31T12:30:16;9.18;;;4.10;;
71148;SDS011;59072;42.144;25.200;2023-10-31T12:32:43;10.50;;;4.47;;
71148;SDS011;59072;42.144;25.200;2023-10-31T12:35:10;10.37;;;4.50;;
71148;SDS011;59072;42.144;25.200;2023-10-31T12:37:45;8.90;;;4.00;;
71148;SDS011;59072;42.144;25.200;2023-10-31T12:40:21;10.82;;;4.68;;
71148;SDS011;59072;42.144;25.200;2023-10-31T12:42:48;12.07;;;4.53;;
71148;SDS011;59072;42.144;25.200;2023-10-31T12:45:15;10.90;;;4.38;;
71148;SDS011;59072;42.144;25.200;2023-10-31T12:47:42;12.00;;;4.88;;
71148;SDS011;59072;42.144;25.200;2023-10-31T12:50:17;12.35;;;4.85;;
71148;SDS011;59072;42.144;25.200;2023-10-31T12:52:50;10.45;;;5.20;;
71148;SDS011;59072;42.144;25.200;2023-10-31T12:55:19;12.52;;;5.10;;
71148;SDS011;59072;42.144;25.200;2023-10-31T12:57:47;8.95;;;4.35;;
71148;SDS011;59072;42.144;25.200;2023-10-31T13:00:13;11.48;;;4.85;;
71148;SDS011;59072;42.144;25.200;2023-10-31T13:02:41;9.07;;;4.50;;
71148;SDS011;59072;42.144;25.200;2023-10-31T13:05:16;11.20;;;4.28;;
71148;SDS011;59072;42.144;25.200;2023-10-31T13:07:49;10.60;;;4.55;;
71148;SDS011;59072;42.144;25.200;2023-10-31T13:10:24;12.60;;;4.90;;
71148;SDS011;59072;42.144;25.200;2023-10-31T13:12:50;11.40;;;5.05;;
71148;SDS011;59072;42.144;25.200;2023-10-31T13:15:17;16.23;;;6.73;;
71148;SDS011;59072;42.144;25.200;2023-10-31T13:17:44;19.80;;;8.50;;
71148;SDS011;59072;42.144;25.200;2023-10-31T13:20:13;17.25;;;7.55;;
71148;SDS011;59072;42.144;25.200;2023-10-31T13:22:40;13.75;;;5.65;;
71148;SDS011;59072;42.144;25.200;2023-10-31T13:25:07;12.38;;;5.93;;
71148;SDS011;59072;42.144;25.200;2023-10-31T13:27:35;11.48;;;5.40;;
71148;SDS011;59072;42.144;25.200;2023-10-31T13:30:08;12.32;;;5.65;;
71148;SDS011;59072;42.144;25.200;2023-10-31T13:32:39;12.60;;;5.32;;
71148;SDS011;59072;42.144;25.200;2023-10-31T13:35:06;10.93;;;6.07;;
71148;SDS011;59072;42.144;25.200;2023-10-31T13:37:34;10.85;;;5.55;;
71148;SDS011;59072;42.144;25.200;2023-10-31T13:40:00;22.33;;;5.85;;
71148;SDS011;59072;42.144;25.200;2023-10-31T13:42:26;19.08;;;7.43;;
71148;SDS011;59072;42.144;25.200;2023-10-31T13:44:51;19.02;;;9.10;;
71148;SDS011;59072;42.144;25.200;2023-10-31T13:47:16;21.27;;;11.65;;
71148;SDS011;59072;42.144;25.200;2023-10-31T13:49:42;24.80;;;12.05;;
71148;SDS011;59072;42.144;25.200;2023-10-31T13:52:08;38.42;;;21.80;;
71148;SDS011;59072;42.144;25.200;2023-10-31T13:54:33;27.52;;;14.93;;
71148;SDS011;59072;42.144;25.200;2023-10-31T13:56:58;30.63;;;12.98;;
71148;SDS011;59072;42.144;25.200;2023-10-31T13:59:24;32.15;;;14.57;;
71148;SDS011;59072;42.144;25.200;2023-10-31T14:01:50;46.40;;;23.55;;
71148;SDS011;59072;42.144;25.200;2023-10-31T14:04:15;74.65;;;37.33;;
71148;SDS011;59072;42.144;25.200;2023-10-31T14:06:42;70.13;;;34.78;;
71148;SDS011;59072;42.144;25.200;2023-10-31T14:09:08;41.10;;;22.05;;
71148;SDS011;59072;42.144;25.200;2023-10-31T14:11:34;30.25;;;17.73;;
71148;SDS011;59072;42.144;25.200;2023-10-31T14:14:00;44.58;;;25.75;;
71148;SDS011;59072;42.144;25.200;2023-10-31T14:16:31;48.35;;;26.15;;
71148;SDS011;59072;42.144;25.200;2023-10-31T14:19:06;34.47;;;17.38;;
71148;SDS011;59072;42.144;25.200;2023-10-31T14:21:33;29.58;;;16.05;;
71148;SDS011;59072;42.144;25.200;2023-10-31T14:23:59;18.35;;;9.98;;
71148;SDS011;59072;42.144;25.200;2023-10-31T14:26:25;18.17;;;9.02;;